Terminal Aerodrome Forecast
Issued by NWS Portland, ME

Current Version | Previous Version | Text Only | Print | Product List | Glossary On
Versions: 1 2 3 4 5 6 7 8 9 10 11 12 13 14 15 16 17 18 19 20 21 22 23 24 25 26 27
431 FTUS41 KGYX 020251 AAB TAFPWM TAF AMD KPWM 020251Z 0203/0224 19014G20KT 5SM SHRA BR BKN007 OVC012 TEMPO 0203/0205 2SM -TSRA SCT020 BKN050CB OVC080 FM020500 17007KT 4SM BR BKN015 OVC030 FM021200 28010G20KT P6SM SCT050=

USA.gov is the U.S. government's official web portal to all federal, state and local government web resources and services.